createdAt,value
2017-07-29T00:01:20.552Z,94976.03
2017-07-29T00:03:48.068Z,94971.13
2017-07-29T00:06:15.664Z,94980.47
2017-07-29T00:08:43.201Z,94975.11
2017-07-29T00:11:10.708Z,94983.22
2017-07-29T00:13:38.264Z,94981.30
2017-07-29T00:16:05.767Z,94976.47
2017-07-29T00:18:33.261Z,94983.80
2017-07-29T00:21:00.809Z,94985.06
2017-07-29T00:23:28.301Z,94985.66
2017-07-29T00:25:55.876Z,94992.50
2017-07-29T00:28:23.376Z,94989.05
2017-07-29T00:30:50.924Z,94985.27
2017-07-29T00:33:18.479Z,94987.14
2017-07-29T00:35:45.982Z,94988.61
2017-07-29T00:38:13.528Z,94992.25
2017-07-29T00:40:41.079Z,94992.60
2017-07-29T00:43:08.589Z,94990.89
2017-07-29T00:45:36.133Z,94990.66
2017-07-29T00:48:03.633Z,94991.45
2017-07-29T00:50:31.197Z,94989.23
2017-07-29T00:52:58.700Z,94986.16
2017-07-29T00:55:26.202Z,94991.55
2017-07-29T00:57:53.784Z,94989.58
2017-07-29T01:00:21.283Z,94989.20
2017-07-29T01:02:48.781Z,94991.96
2017-07-29T01:05:16.352Z,95004.12
2017-07-29T01:07:43.897Z,95002.80
2017-07-29T01:10:11.401Z,95005.55
2017-07-29T01:12:38.897Z,95007.34
2017-07-29T01:15:06.449Z,95003.48
2017-07-29T01:17:33.949Z,95008.00
2017-07-29T01:20:01.445Z,95007.08
2017-07-29T01:22:29.006Z,95009.30
2017-07-29T01:24:56.505Z,95002.30
2017-07-29T01:27:24.009Z,95005.74
2017-07-29T01:29:51.550Z,95012.53
2017-07-29T01:32:19.093Z,95018.38
2017-07-29T01:34:46.585Z,95014.81
2017-07-29T01:37:14.121Z,95013.70
2017-07-29T01:39:41.620Z,95014.08
2017-07-29T01:42:09.178Z,95017.96
2017-07-29T01:44:36.684Z,95015.09
2017-07-29T01:47:04.193Z,95014.30
2017-07-29T01:49:31.753Z,95009.84
2017-07-29T01:51:59.248Z,95022.42
2017-07-29T01:54:26.746Z,95021.61
2017-07-29T01:56:54.299Z,95022.64
2017-07-29T01:59:21.832Z,95029.64
2017-07-29T02:01:49.377Z,95024.41
2017-07-29T02:04:16.946Z,95020.55
2017-07-29T02:06:44.446Z,95023.61
2017-07-29T02:09:11.976Z,95029.07
2017-07-29T02:11:39.519Z,95032.81
2017-07-29T02:14:07.023Z,95034.28
2017-07-29T02:16:34.525Z,95026.19
2017-07-29T02:19:02.062Z,95032.80
2017-07-29T02:21:29.623Z,95037.05
2017-07-29T02:23:57.116Z,95035.23
2017-07-29T02:26:24.609Z,95032.63
2017-07-29T02:28:52.155Z,95030.80
2017-07-29T02:31:19.658Z,95031.11
2017-07-29T02:33:47.226Z,95036.95
2017-07-29T02:36:14.725Z,95037.95
2017-07-29T02:38:42.291Z,95036.28
2017-07-29T02:41:09.869Z,95042.26
2017-07-29T02:43:37.364Z,95040.28
2017-07-29T02:46:04.861Z,95037.78
2017-07-29T02:48:32.422Z,95038.77
2017-07-29T02:50:59.920Z,95041.72
2017-07-29T02:53:27.416Z,95043.12
2017-07-29T02:55:54.977Z,95038.55
2017-07-29T02:58:22.611Z,95042.61
2017-07-29T03:00:50.121Z,95041.20
2017-07-29T03:03:17.666Z,95044.92
2017-07-29T03:05:45.173Z,95051.00
2017-07-29T03:08:12.769Z,95045.67
2017-07-29T03:10:40.277Z,95050.23
2017-07-29T03:13:07.777Z,95059.14
2017-07-29T03:15:35.321Z,95053.47
2017-07-29T03:18:02.821Z,95061.50
2017-07-29T03:20:30.332Z,95061.50
2017-07-29T03:22:57.893Z,95065.33
2017-07-29T03:25:25.461Z,95068.70
2017-07-29T03:27:52.966Z,95063.02
2017-07-29T03:30:20.550Z,95068.77
2017-07-29T03:32:48.056Z,95072.67
2017-07-29T03:35:15.557Z,95075.13
2017-07-29T03:37:43.170Z,95070.53
2017-07-29T03:40:10.675Z,95080.44
2017-07-29T03:42:38.230Z,95077.00
2017-07-29T03:45:05.726Z,95074.34
2017-07-29T03:47:33.224Z,95084.47
2017-07-29T03:50:00.829Z,95079.41
2017-07-29T03:52:28.337Z,95082.69
2017-07-29T03:54:55.841Z,95088.94
2017-07-29T03:57:23.385Z,95095.38
2017-07-29T03:59:50.910Z,95086.96
2017-07-29T04:02:18.401Z,95092.42
2017-07-29T04:04:45.940Z,95099.95
2017-07-29T04:07:13.525Z,95102.97
2017-07-29T04:09:41.032Z,95106.36
2017-07-29T04:12:08.536Z,95114.33
2017-07-29T04:14:36.080Z,95109.30
2017-07-29T04:17:03.574Z,95109.30
2017-07-29T04:19:31.074Z,95112.92
2017-07-29T04:21:58.644Z,95113.00
2017-07-29T04:24:26.152Z,95115.09
2017-07-29T04:26:53.656Z,95123.41
2017-07-29T04:29:21.190Z,95123.91
2017-07-29T04:31:48.712Z,95126.30
2017-07-29T04:34:16.241Z,95126.62
2017-07-29T04:36:43.846Z,95127.34
2017-07-29T04:39:11.430Z,95129.41
2017-07-29T04:41:38.935Z,95133.16
2017-07-29T04:44:06.440Z,95136.45
2017-07-29T04:46:33.980Z,95139.08
2017-07-29T04:49:01.498Z,95145.87
2017-07-29T04:51:28.993Z,95143.53
2017-07-29T04:53:56.541Z,95152.42
2017-07-29T04:56:24.036Z,95151.98
2017-07-29T04:58:51.529Z,95147.20
2017-07-29T05:01:19.072Z,95150.77
2017-07-29T05:03:46.565Z,95160.25
2017-07-29T05:06:14.105Z,95159.63
2017-07-29T05:08:41.689Z,95158.62
2017-07-29T05:11:09.188Z,95165.25
2017-07-29T05:13:36.687Z,95169.38
2017-07-29T05:16:04.261Z,95166.69
2017-07-29T05:18:31.816Z,95171.94
2017-07-29T05:20:59.312Z,95177.78
2017-07-29T05:23:26.821Z,95174.67
2017-07-29T05:25:54.360Z,95174.22
2017-07-29T05:28:21.865Z,95176.85
2017-07-29T05:30:49.382Z,95179.59
2017-07-29T05:33:16.924Z,95177.50
2017-07-29T05:35:44.481Z,95174.72
2017-07-29T05:38:11.974Z,95180.17
2017-07-29T05:40:39.531Z,95182.97
2017-07-29T05:43:07.032Z,95179.33
2017-07-29T05:45:34.573Z,95178.53
2017-07-29T05:48:02.145Z,95183.56
2017-07-29T05:50:29.684Z,95184.27
2017-07-29T05:52:57.229Z,95179.09
2017-07-29T05:55:24.728Z,95187.38
2017-07-29T05:57:52.269Z,95192.45
2017-07-29T06:00:19.766Z,95196.55
2017-07-29T06:02:47.315Z,95198.27
2017-07-29T06:05:14.829Z,95199.77
2017-07-29T06:07:42.332Z,95196.08
2017-07-29T06:10:09.888Z,95200.59
2017-07-29T06:12:37.396Z,95205.67
2017-07-29T06:15:04.947Z,95203.36
2017-07-29T06:17:32.452Z,95199.48
2017-07-29T06:19:59.970Z,95201.36
2017-07-29T06:22:27.694Z,95200.15
2017-07-29T06:24:55.191Z,95201.77
2017-07-29T06:27:22.692Z,95198.69
2017-07-29T06:29:50.249Z,95201.30
2017-07-29T06:32:17.796Z,95193.38
2017-07-29T06:34:45.345Z,95197.77
2017-07-29T06:37:12.900Z,95200.94
2017-07-29T06:39:40.455Z,95191.16
2017-07-29T06:42:08.000Z,95191.70
2017-07-29T06:44:35.539Z,95190.83
2017-07-29T06:47:03.085Z,95190.48
2017-07-29T06:49:30.586Z,95190.07
2017-07-29T06:51:58.089Z,95189.23
2017-07-29T06:54:25.629Z,95184.03
2017-07-29T06:56:53.133Z,95185.36
2017-07-29T06:59:20.679Z,95192.50
2017-07-29T07:01:48.325Z,95191.70
2017-07-29T07:04:15.908Z,95186.15
2017-07-29T07:06:43.505Z,95189.80
2017-07-29T07:09:11.050Z,95183.79
2017-07-29T07:11:38.553Z,95185.66
2017-07-29T07:14:06.152Z,95188.67
2017-07-29T07:16:33.653Z,95186.92
2017-07-29T07:19:01.165Z,95194.70
2017-07-29T07:21:28.733Z,95193.37
2017-07-29T07:23:56.226Z,95194.86
2017-07-29T07:26:23.723Z,95198.45
2017-07-29T07:28:51.280Z,95198.69
2017-07-29T07:31:18.782Z,95201.20
2017-07-29T07:33:46.280Z,95198.53
2017-07-29T07:36:13.822Z,95204.41
2017-07-29T07:38:41.356Z,95206.51
2017-07-29T07:41:08.896Z,95201.52
2017-07-29T07:43:36.400Z,95208.34
2017-07-29T07:46:03.896Z,95213.30
2017-07-29T07:48:31.428Z,95206.85
2017-07-29T07:50:58.937Z,95211.55
2017-07-29T07:53:26.472Z,95209.04
2017-07-29T07:55:53.964Z,95207.70
2017-07-29T07:58:21.462Z,95207.70
2017-07-29T08:00:49.001Z,95207.92
2017-07-29T08:03:16.508Z,95209.23
2017-07-29T08:05:44.061Z,95208.02
2017-07-29T08:08:11.581Z,95210.53
2017-07-29T08:10:39.104Z,95207.59
2017-07-29T08:13:06.643Z,95220.53
2017-07-29T08:15:34.184Z,95217.64
2017-07-29T08:18:01.687Z,95220.27
2017-07-29T08:20:29.240Z,95222.75
2017-07-29T08:22:56.745Z,95221.77
2017-07-29T08:25:24.236Z,95220.81
2017-07-29T08:27:51.773Z,95225.00
2017-07-29T08:30:19.317Z,95223.60
2017-07-29T08:32:46.816Z,95223.66
2017-07-29T08:35:14.328Z,95225.58
2017-07-29T08:37:41.869Z,95223.44
2017-07-29T08:40:09.364Z,95228.78
2017-07-29T08:42:36.864Z,95228.41
2017-07-29T08:45:04.409Z,95226.34
2017-07-29T08:47:31.904Z,95224.39
2017-07-29T08:49:59.428Z,95222.75
2017-07-29T08:52:26.975Z,95229.20
2017-07-29T08:54:54.473Z,95222.68
2017-07-29T08:57:21.977Z,95221.57
2017-07-29T08:59:49.537Z,95225.58
2017-07-29T09:02:17.104Z,95221.57
2017-07-29T09:04:44.659Z,95223.09
2017-07-29T09:07:12.231Z,95219.51
2017-07-29T09:09:39.720Z,95216.07
2017-07-29T09:12:07.281Z,95207.68
2017-07-29T09:14:34.788Z,95205.20
2017-07-29T09:17:02.300Z,95203.87
2017-07-29T09:19:29.854Z,95197.98
2017-07-29T09:21:57.356Z,95199.28
2017-07-29T09:24:24.854Z,95198.22
2017-07-29T09:26:52.397Z,95201.80
2017-07-29T09:29:19.890Z,95196.81
2017-07-29T09:31:47.390Z,95196.46
2017-07-29T09:34:14.985Z,95201.20
2017-07-29T09:36:42.546Z,95203.48
2017-07-29T09:39:10.045Z,95200.66
2017-07-29T09:41:37.602Z,95198.14
2017-07-29T09:44:05.097Z,95197.80
2017-07-29T09:46:32.596Z,95199.67
2017-07-29T09:49:00.189Z,95193.53
2017-07-29T09:51:27.749Z,95197.88
2017-07-29T09:53:55.249Z,95196.23
2017-07-29T09:56:22.755Z,95190.86
2017-07-29T09:58:50.296Z,95201.20
2017-07-29T10:01:17.820Z,95193.69
2017-07-29T10:03:45.354Z,95194.06
2017-07-29T10:06:12.897Z,95192.58
2017-07-29T10:08:40.388Z,95185.30
2017-07-29T10:11:07.946Z,95186.63
2017-07-29T10:13:35.444Z,95194.45
2017-07-29T10:16:02.942Z,95189.86
2017-07-29T10:18:30.492Z,95188.69
2017-07-29T10:20:57.996Z,95188.88
2017-07-29T10:23:25.490Z,95182.02
2017-07-29T10:25:53.067Z,95181.78
2017-07-29T10:28:20.569Z,95181.97
2017-07-29T10:30:48.071Z,95183.42
2017-07-29T10:33:15.638Z,95186.98
2017-07-29T10:35:43.236Z,95191.18
2017-07-29T10:38:10.732Z,95188.34
2017-07-29T10:40:38.236Z,95184.30
2017-07-29T10:43:05.776Z,95175.27
2017-07-29T10:45:33.284Z,95178.66
2017-07-29T10:48:00.825Z,95180.73
2017-07-29T10:50:28.321Z,95176.87
2017-07-29T10:52:55.817Z,95167.33
2017-07-29T10:55:23.374Z,95171.52
2017-07-29T10:57:50.875Z,95171.27
2017-07-29T11:00:18.413Z,95167.67
2017-07-29T11:02:45.960Z,95163.13
2017-07-29T11:05:13.497Z,95167.91
2017-07-29T11:07:41.024Z,95159.81
2017-07-29T11:10:08.575Z,95166.19
2017-07-29T11:12:36.102Z,95162.14
2017-07-29T11:15:03.666Z,95171.65
2017-07-29T11:17:31.186Z,95163.82
2017-07-29T11:19:58.711Z,95155.92
2017-07-29T11:22:26.259Z,95151.53
2017-07-29T11:24:53.768Z,95152.98
2017-07-29T11:27:21.264Z,95139.47
2017-07-29T11:29:48.824Z,95152.55
2017-07-29T11:32:16.333Z,95150.03
2017-07-29T11:34:43.877Z,95152.39
2017-07-29T11:37:11.377Z,95153.73
2017-07-29T11:39:38.872Z,95149.41
2017-07-29T11:42:06.400Z,95141.39
2017-07-29T11:44:33.893Z,95149.80
2017-07-29T11:47:01.447Z,95153.49
2017-07-29T11:49:28.969Z,95143.49
2017-07-29T11:51:56.499Z,95140.86
2017-07-29T11:54:24.073Z,95140.44
2017-07-29T11:56:51.630Z,95136.77
2017-07-29T11:59:19.139Z,95142.45
2017-07-29T12:01:46.637Z,95130.63
2017-07-29T12:04:14.283Z,95126.61
2017-07-29T12:06:41.824Z,95125.81
2017-07-29T12:09:09.385Z,95132.67
2017-07-29T12:11:36.881Z,95134.16
2017-07-29T12:14:04.381Z,95128.13
2017-07-29T12:16:31.925Z,95122.89
2017-07-29T12:18:59.441Z,95126.95
2017-07-29T12:21:26.941Z,95126.91
2017-07-29T12:23:54.477Z,95128.23
2017-07-29T12:26:21.978Z,95129.27
2017-07-29T12:28:49.521Z,95118.81
2017-07-29T12:31:17.026Z,95127.15
2017-07-29T12:33:45.020Z,95121.87
2017-07-29T12:36:12.582Z,95123.78
2017-07-29T12:38:40.089Z,95123.49
2017-07-29T12:41:07.633Z,95116.98
2017-07-29T12:43:35.136Z,95111.80
2017-07-29T12:46:02.645Z,95117.52
2017-07-29T12:48:30.201Z,95115.13
2017-07-29T12:50:57.716Z,95116.98
2017-07-29T12:53:25.257Z,95114.31
2017-07-29T12:55:52.795Z,95109.98
2017-07-29T12:58:20.328Z,95107.09
2017-07-29T13:00:47.841Z,95102.99
2017-07-29T13:03:15.443Z,95111.55
2017-07-29T13:05:43.251Z,95109.09
2017-07-29T13:08:10.788Z,95108.30
2017-07-29T13:10:38.358Z,95107.64
2017-07-29T13:13:05.890Z,95104.92
2017-07-29T13:15:33.420Z,95111.18
2017-07-29T13:18:01.029Z,95111.23
2017-07-29T13:20:28.552Z,95106.17
2017-07-29T13:22:56.051Z,95099.57
2017-07-29T13:25:23.613Z,95104.88
2017-07-29T13:27:51.122Z,95102.58
2017-07-29T13:30:18.696Z,95098.30
2017-07-29T13:32:46.274Z,95105.18
2017-07-29T13:35:13.856Z,95097.01
2017-07-29T13:37:41.378Z,95101.59
2017-07-29T13:40:08.936Z,95107.70
2017-07-29T13:42:36.510Z,95094.48
2017-07-29T13:45:04.032Z,95096.38
2017-07-29T13:47:31.616Z,95097.11
2017-07-29T13:49:59.171Z,95095.88
2017-07-29T13:52:26.705Z,95096.00
2017-07-29T13:54:54.252Z,95091.99
2017-07-29T13:57:21.933Z,95084.98
2017-07-29T13:59:49.549Z,95086.09
2017-07-29T14:02:17.050Z,95089.15
2017-07-29T14:04:44.589Z,95087.51
2017-07-29T14:07:12.134Z,95082.16
2017-07-29T14:09:39.638Z,95087.70
2017-07-29T14:12:07.150Z,95083.07
2017-07-29T14:14:34.698Z,95078.36
2017-07-29T14:17:02.395Z,95078.94
2017-07-29T14:19:30.118Z,95077.06
2017-07-29T14:21:57.644Z,95080.88
2017-07-29T14:24:25.240Z,95084.66
2017-07-29T14:26:52.779Z,95084.13
2017-07-29T14:29:20.277Z,95081.08
2017-07-29T14:31:47.831Z,95087.00
2017-07-29T14:34:15.391Z,95080.08
2017-07-29T14:36:42.941Z,95084.52
2017-07-29T14:39:10.493Z,95079.55
2017-07-29T14:41:38.063Z,95080.38
2017-07-29T14:44:05.580Z,95079.47
2017-07-29T14:46:33.101Z,95083.33
2017-07-29T14:49:00.644Z,95083.33
2017-07-29T14:51:28.183Z,95086.43
2017-07-29T14:53:55.729Z,95083.98
2017-07-29T14:56:35.262Z,95083.17
2017-07-29T14:59:02.832Z,95089.10
2017-07-29T15:01:30.353Z,95078.78
2017-07-29T15:03:57.850Z,95085.09
2017-07-29T15:06:25.424Z,95082.99
2017-07-29T15:08:52.999Z,95082.64
2017-07-29T15:11:20.512Z,95082.80
2017-07-29T15:13:48.084Z,95088.14
2017-07-29T15:16:15.684Z,95086.58
2017-07-29T15:18:43.182Z,95092.96
2017-07-29T15:21:10.727Z,95090.06
2017-07-29T15:23:38.230Z,95093.01
2017-07-29T15:26:05.809Z,95090.86
2017-07-29T15:28:33.310Z,95090.19
2017-07-29T15:31:00.829Z,95092.30
2017-07-29T15:33:28.376Z,95092.48
2017-07-29T15:35:55.889Z,95087.86
2017-07-29T15:38:23.437Z,95093.01
2017-07-29T15:40:51.009Z,95085.98
2017-07-29T15:43:18.544Z,95088.13
2017-07-29T15:45:46.053Z,95086.37
2017-07-29T15:48:13.816Z,95092.91
2017-07-29T15:50:41.395Z,95086.90
2017-07-29T15:53:08.947Z,95085.94
2017-07-29T15:55:36.445Z,95084.61
2017-07-29T15:58:04.020Z,95086.37
2017-07-29T16:00:31.519Z,95085.19
2017-07-29T16:02:59.035Z,95085.80
2017-07-29T16:05:26.590Z,95088.09
2017-07-29T16:07:54.112Z,95092.67
2017-07-29T16:10:21.625Z,95089.27
2017-07-29T16:12:49.197Z,95089.09
2017-07-29T16:15:16.705Z,95085.88
2017-07-29T16:17:44.233Z,95084.34
2017-07-29T16:20:11.776Z,95094.77
2017-07-29T16:22:39.329Z,95089.14
2017-07-29T16:25:06.892Z,95098.88
2017-07-29T16:27:34.388Z,95092.57
2017-07-29T16:30:01.895Z,95093.53
2017-07-29T16:32:29.431Z,95099.10
2017-07-29T16:34:56.976Z,95096.58
2017-07-29T16:37:24.527Z,95097.97
2017-07-29T16:39:52.041Z,95096.70
2017-07-29T16:42:19.540Z,95104.02
2017-07-29T16:44:47.084Z,95096.95
2017-07-29T16:47:14.706Z,95104.28
2017-07-29T16:49:42.213Z,95104.44
2017-07-29T16:52:09.781Z,95105.19
2017-07-29T16:54:37.341Z,95105.58
2017-07-29T16:57:04.845Z,95109.34
2017-07-29T16:59:32.384Z,95111.52
2017-07-29T17:01:59.920Z,95107.31
2017-07-29T17:04:27.429Z,95106.98
2017-07-29T17:06:54.964Z,95110.38
2017-07-29T17:09:22.464Z,95110.14
2017-07-29T17:11:50.005Z,95112.28
2017-07-29T17:14:17.559Z,95112.28
2017-07-29T17:16:45.061Z,95116.88
2017-07-29T17:19:12.604Z,95114.63
2017-07-29T17:21:40.136Z,95119.77
2017-07-29T17:24:07.638Z,95127.41
2017-07-29T17:26:35.175Z,95126.45
2017-07-29T17:29:02.715Z,95124.73
2017-07-29T17:31:30.245Z,95125.55
2017-07-29T17:33:57.794Z,95129.55
2017-07-29T17:36:25.337Z,95132.84
2017-07-29T17:38:52.876Z,95135.52
2017-07-29T17:41:20.402Z,95136.70
2017-07-29T17:43:47.945Z,95139.38
2017-07-29T17:46:15.453Z,95143.61
2017-07-29T17:48:43.006Z,95149.95
2017-07-29T17:51:10.513Z,95151.49
2017-07-29T17:53:38.015Z,95148.47
2017-07-29T17:56:05.562Z,95154.39
2017-07-29T17:58:33.066Z,95152.34
2017-07-29T18:01:00.561Z,95158.38
2017-07-29T18:03:28.138Z,95163.03
2017-07-29T18:05:55.637Z,95163.07
2017-07-29T18:08:23.145Z,95164.30
2017-07-29T18:10:50.691Z,95172.73
2017-07-29T18:13:18.236Z,95173.35
2017-07-29T18:15:45.833Z,95179.84
2017-07-29T18:18:13.412Z,95189.38
2017-07-29T18:20:40.917Z,95192.86
2017-07-29T18:23:08.466Z,95200.34
2017-07-29T18:25:35.981Z,95202.14
2017-07-29T18:28:03.921Z,95210.76
2017-07-29T18:30:31.524Z,95221.06
2017-07-29T18:32:59.033Z,95222.95
2017-07-29T18:35:26.549Z,95227.03
2017-07-29T18:37:54.091Z,95231.11
2017-07-29T18:40:21.595Z,95228.79
2017-07-29T18:42:49.117Z,95230.65
2017-07-29T18:45:16.686Z,95228.05
2017-07-29T18:47:44.358Z,95231.33
2017-07-29T18:50:11.864Z,95233.50
2017-07-29T18:52:39.429Z,95240.41
2017-07-29T18:55:07.005Z,95235.75
2017-07-29T18:57:34.524Z,95236.66
2017-07-29T19:00:02.033Z,95237.23
2017-07-29T19:02:29.565Z,95242.65
2017-07-29T19:04:57.102Z,95236.20
2017-07-29T19:07:24.642Z,95242.76
2017-07-29T19:09:52.207Z,95242.98
2017-07-29T19:12:19.706Z,95239.55
2017-07-29T19:14:47.295Z,95245.69
2017-07-29T19:17:14.852Z,95246.45
2017-07-29T19:19:42.405Z,95243.21
2017-07-29T19:22:09.901Z,95249.20
2017-07-29T19:24:37.432Z,95252.52
2017-07-29T19:27:04.981Z,95249.12
2017-07-29T19:29:32.527Z,95246.94
2017-07-29T19:32:00.037Z,95251.70
2017-07-29T19:34:27.550Z,95250.19
2017-07-29T19:36:55.111Z,95251.36
2017-07-29T19:39:22.607Z,95255.20
2017-07-29T19:41:50.104Z,95256.55
2017-07-29T19:44:17.734Z,95256.49
2017-07-29T19:46:45.289Z,95253.31
2017-07-29T19:49:12.880Z,95258.02
2017-07-29T19:51:40.397Z,95259.35
2017-07-29T19:54:07.957Z,95255.83
2017-07-29T19:56:35.453Z,95256.44
2017-07-29T19:59:02.949Z,95261.40
2017-07-29T20:01:30.533Z,95266.32
2017-07-29T20:03:58.036Z,95264.25
2017-07-29T20:06:25.617Z,95263.27
2017-07-29T20:08:53.116Z,95266.32
2017-07-29T20:11:20.651Z,95266.23
2017-07-29T20:13:48.202Z,95270.23
2017-07-29T20:16:15.767Z,95270.23
2017-07-29T20:18:43.265Z,95270.24
2017-07-29T20:21:10.799Z,95268.30
2017-07-29T20:23:38.329Z,95272.79
2017-07-29T20:26:05.839Z,95264.15
2017-07-29T20:28:33.393Z,95274.60
2017-07-29T20:31:00.894Z,95273.94
2017-07-29T20:33:28.401Z,95273.05
2017-07-29T20:35:55.941Z,95275.55
2017-07-29T20:38:23.443Z,95275.27
2017-07-29T20:40:50.997Z,95273.20
2017-07-29T20:43:18.601Z,95272.22
2017-07-29T20:45:46.123Z,95274.54
2017-07-29T20:48:13.707Z,95280.48
2017-07-29T20:50:41.238Z,95281.14
2017-07-29T20:53:08.740Z,95278.89
2017-07-29T20:55:36.277Z,95285.05
2017-07-29T20:58:03.774Z,95285.97
2017-07-29T21:00:31.284Z,95280.70
2017-07-29T21:02:58.818Z,95285.37
2017-07-29T21:05:26.312Z,95288.70
2017-07-29T21:07:53.810Z,95284.26
2017-07-29T21:10:21.394Z,95284.13
2017-07-29T21:12:48.910Z,95281.94
2017-07-29T21:15:16.438Z,95284.85
2017-07-29T21:17:44.076Z,95279.84
2017-07-29T21:20:11.620Z,95285.17
2017-07-29T21:22:39.120Z,95283.07
2017-07-29T21:25:06.685Z,95289.58
2017-07-29T21:27:34.184Z,95294.73
2017-07-29T21:30:01.705Z,95293.48
2017-07-29T21:32:29.266Z,95297.23
2017-07-29T21:34:56.801Z,95293.07
2017-07-29T21:37:24.309Z,95296.02
2017-07-29T21:39:51.866Z,95296.47
2017-07-29T21:42:19.397Z,95292.14
2017-07-29T21:44:47.858Z,95293.24
2017-07-29T21:47:15.402Z,95290.59
2017-07-29T21:49:42.917Z,95291.63
2017-07-29T21:52:10.423Z,95290.39
2017-07-29T21:54:37.960Z,95286.14
2017-07-29T21:57:05.488Z,95284.34
2017-07-29T21:59:33.034Z,95294.03
2017-07-29T22:02:00.570Z,95293.52
2017-07-29T22:04:28.109Z,95299.30
2017-07-29T22:06:55.669Z,95292.59
2017-07-29T22:09:23.250Z,95295.15
2017-07-29T22:11:50.749Z,95298.88
2017-07-29T22:14:18.301Z,95305.03
2017-07-29T22:16:45.805Z,95300.13
2017-07-29T22:19:13.383Z,95300.19
2017-07-29T22:21:40.922Z,95298.45
2017-07-29T22:24:08.426Z,95300.25
2017-07-29T22:26:35.925Z,95296.25
2017-07-29T22:29:03.457Z,95299.57
2017-07-29T22:31:31.017Z,95302.94
2017-07-29T22:33:58.510Z,95302.62
2017-07-29T22:36:26.005Z,95300.91
2017-07-29T22:38:53.546Z,95303.89
2017-07-29T22:41:21.081Z,95302.42
2017-07-29T22:43:48.639Z,95296.66
2017-07-29T22:46:16.139Z,95294.81
2017-07-29T22:48:43.716Z,95297.26
2017-07-29T22:51:11.221Z,95304.28
2017-07-29T22:53:38.772Z,95311.19
2017-07-29T22:56:06.289Z,95309.89
2017-07-29T22:58:33.795Z,95298.56
2017-07-29T23:01:01.333Z,95299.11
2017-07-29T23:03:28.829Z,95299.08
2017-07-29T23:05:56.322Z,95300.85
2017-07-29T23:08:23.881Z,95305.39
2017-07-29T23:10:51.420Z,95305.50
2017-07-29T23:13:18.962Z,95302.48
2017-07-29T23:15:46.517Z,95303.38
2017-07-29T23:18:14.052Z,95299.41
2017-07-29T23:20:41.548Z,95303.22
2017-07-29T23:23:09.137Z,95299.22
2017-07-29T23:25:36.633Z,95300.91
2017-07-29T23:28:04.129Z,95297.28
2017-07-29T23:30:31.677Z,95294.59
2017-07-29T23:32:59.173Z,95293.13
2017-07-29T23:35:26.668Z,95297.72
2017-07-29T23:37:54.200Z,95296.12
2017-07-29T23:40:21.707Z,95301.06
2017-07-29T23:42:49.249Z,95299.48
2017-07-29T23:45:16.748Z,95303.05
2017-07-29T23:47:44.292Z,95303.19
2017-07-29T23:50:11.788Z,95300.95
2017-07-29T23:52:39.325Z,95298.51
2017-07-29T23:55:06.871Z,95295.00
2017-07-29T23:57:34.370Z,95297.61
